Friday, February 23, 2018, 1:36 PM EST
Back to Local

KITH, Ithaca, Ithaca Tompkins Regional Airport

Location: Ithaca, NY, United States Lat: 42.491
Local Time: 1:36 PM EST (18:36 GMT) Lon: -76.458
Time Zone: US/Eastern Elev: 1099 ft

Show me the last for .
Show Decoded

2018-02-23 12:56 METAR KITH 231756Z 18014G23KT 10SM OVC008 02/00 A3028 RMK AO2 SLPNO 6////
                 T00170000 =
2018-02-23 12:15 METAR KITH 231715Z 15021G28KT 10SM BR OVC008 01/00 A3029 RMK AO2 PK WND
                 16028/1710 =
2018-02-23 11:56 METAR KITH 231656Z 17016G26KT 6SM BR OVC010 02/00 A3032 RMK AO2 SLPNO T00170000
                 =
2018-02-23 11:31 METAR KITH 231631Z 16019G30KT 6SM BR OVC010 02/00 A3031 RMK AO2 PK WND
                 15032/1621 =
2018-02-23 10:56 METAR KITH 231556Z 16017G27KT 6SM BR OVC010 02/00 A3034 RMK AO2 RAE37 SLP286
                 P0002 T00170000 =
2018-02-23 09:56 METAR KITH 231456Z 15017G21KT 9SM -RA OVC008 01/00 A3040 RMK AO2 UPB41E47RAB47
                 SLP308 P0000 60000 T00110000 58030 =
2018-02-23 08:56 METAR KITH 231356Z 16010G18KT 10SM OVC008 01/M01 A3043 RMK AO2 RAB28E48 SLP316
                 P0000 T00111006 =
2018-02-23 07:56 METAR KITH 231256Z 15011KT 4SM BR OVC008 01/M01 A3048 RMK AO2 UPB40E50 SLP334
                 P0000 T00061006 =
2018-02-23 07:23 METAR KITH 231223Z 13009G17KT 10SM OVC008 01/M01 A3048 RMK AO2 CIG 007V011 =
2018-02-23 06:56 METAR KITH 231156Z 15010KT 10SM BKN010 OVC034 01/M01 A3049 RMK AO2 SLP339 70036
                 T00061011 10006 21006 56015 =
2018-02-23 06:30 METAR KITH 231130Z 14010G17KT 10SM FEW010 OVC034 01/M01 A3049 RMK AO2 =
2018-02-23 06:02 METAR KITH 231102Z AUTO 15011KT 10SM SCT010 SCT024 OVC030 01/M01 A3050 RMK AO2 =
2018-02-23 05:56 METAR KITH 231056Z AUTO 14009KT 10SM BKN010 BKN024 OVC030 01/M01 A3050 RMK AO2
                 CIG 008V012 SLP341 T00061006 =
2018-02-23 05:42 METAR KITH 231042Z AUTO 13007KT 10SM BKN010 BKN024 OVC032 01/M01 A3050 RMK AO2 =
2018-02-23 05:33 METAR KITH 231033Z AUTO 12005KT 10SM BKN008 OVC032 01/M01 A3050 RMK AO2 =
2018-02-23 04:56 METAR KITH 230956Z AUTO 13008KT 10SM FEW008 OVC030 01/M01 A3051 RMK AO2 SLP345
                 T00061006 =
2018-02-23 04:06 METAR KITH 230906Z AUTO 12006KT 10SM FEW008 OVC034 00/M01 A3053 RMK AO2 =
2018-02-23 03:56 METAR KITH 230856Z AUTO 14005KT 10SM OVC034 00/M01 A3054 RMK AO2 SLP353
                 T00001011 56020 =
2018-02-23 02:56 METAR KITH 230756Z AUTO 09005KT 10SM OVC036 M01/M01 A3057 RMK AO2 SLP363
                 T10061011 =
2018-02-23 02:42 METAR KITH 230742Z AUTO 08004KT 10SM FEW009 OVC036 M01/M01 A3057 RMK AO2 =
2018-02-23 01:56 METAR KITH 230656Z AUTO 08005KT 10SM OVC042 M01/M01 A3057 RMK AO2 SLP364
                 T10061011 =
2018-02-23 00:56 METAR KITH 230556Z AUTO 00000KT 5SM BR FEW001 SCT012 OVC046 M01/M01 A3060 RMK
                 AO2 SLP375 60001 T10061011 10000 21011 56009 =
2018-02-23 00:47 METAR KITH 230547Z AUTO 00000KT 3SM BR SCT001 OVC046 M01/M01 A3060 RMK AO2 =
2018-02-23 00:44 METAR KITH 230544Z AUTO 00000KT 2SM R32/3500VP6000FT BR BKN001 OVC046 M01/M01
                 A3060 RMK AO2 =
2018-02-23 00:40 METAR KITH 230540Z AUTO 08003KT 1SM R32/2600VP6000FT BR BKN001 OVC046 M01/M01
                 A3060 RMK AO2 =
2018-02-23 00:34 METAR KITH 230534Z AUTO 08003KT 1/2SM R32/1600V4000FT FZFG BKN001 OVC046 M01/M01
                 A3060 RMK AO2 =
2018-02-23 00:13 METAR KITH 230513Z AUTO 15004KT 1/4SM R32/1400V1800FT FZFG BKN001 OVC045 M01/M01
                 A3061 RMK AO2 =
2018-02-23 00:04 METAR KITH 230504Z AUTO 15004KT 1/2SM R32/1600V2000FT FZFG BKN001 OVC045 M01/M02
                 A3061 RMK AO2 =
2018-02-22 23:56 METAR KITH 230456Z AUTO 16004KT 3/4SM R32/2000V5500FT BR SCT001 OVC045 M01/M02
                 A3061 RMK AO2 SLP377 T10111017 400391011 =
2018-02-22 23:51 METAR KITH 230451Z AUTO VRB03KT 3/4SM R32/1400V5500FT BR SCT001 OVC045 M01/M02
                 A3061 RMK AO2 400391011 =
2018-02-22 23:48 METAR KITH 230448Z AUTO 10003KT 1/2SM R32/1400V4000FT FZFG BKN001 OVC045 M01/M02
                 A3061 RMK AO2 =
2018-02-22 23:39 METAR KITH 230439Z AUTO 13004KT 1/2SM R32/1400V2200FT FZFG BKN001 OVC038 M01/M02
                 A3061 RMK AO2 =
2018-02-22 23:30 METAR KITH 230430Z AUTO 15005KT 1/4SM R32/1800V4000FT FZFG BKN001 BKN038 M01/M02
                 A3061 RMK AO2 =
2018-02-22 23:15 METAR KITH 230415Z AUTO 00000KT 1/4SM R32/2200V5000FT FZFG FEW001 BKN038 M01/M02
                 A3062 RMK AO2 =
2018-02-22 23:01 METAR KITH 230401Z AUTO 00000KT 1/2SM R32/P6000FT FZFG OVC038 M01/M01 A3062 RMK
                 AO2 =
2018-02-22 22:56 METAR KITH 230356Z AUTO 00000KT 1SM R32/P6000FT BR OVC038 M01/M01 A3061 RMK AO2
                 SLP380 T10061006 =
2018-02-22 22:52 METAR KITH 230352Z AUTO 00000KT 1 3/4SM BR OVC038 M01/M01 A3061 RMK AO2 VIS 1V3
                 =
2018-02-22 22:41 METAR KITH 230341Z AUTO 00000KT 3SM BR OVC038 M01/M01 A3062 RMK AO2 =
2018-02-22 22:19 METAR KITH 230319Z AUTO 00000KT 1 1/4SM R32/3500VP6000FT BR FEW002 OVC038 00/M01
                 A3063 RMK AO2 =
2018-02-22 22:11 METAR KITH 230311Z AUTO 00000KT 1SM R32/3500VP6000FT BR SCT002 SCT013 OVC038
                 00/M01 A3062 RMK AO2 =
2018-02-22 22:03 METAR KITH 230303Z AUTO 00000KT 1 1/4SM R32/4000VP6000FT BR FEW002 SCT012 OVC038
                 00/M01 A3062 RMK AO2 =
2018-02-22 21:56 METAR KITH 230256Z 00000KT 1 3/4SM R32/5500VP6000FT BR SCT002 BKN012 OVC038
                 00/M01 A3063 RMK AO2 VIS 3/4V3 SLP384 60001 T00001006 51008 =
2018-02-22 21:54 METAR KITH 230254Z 00000KT 1 1/4SM R32/4000VP6000FT BR SCT002 BKN012 OVC038
                 00/M01 A3063 RMK AO2 VIS 3/4V3 =
2018-02-22 21:51 METAR KITH 230251Z 00000KT 1SM R32/4000VP6000FT BR BKN002 BKN012 OVC038 00/M01
                 A3063 RMK AO2 =
2018-02-22 21:36 METAR KITH 230236Z 00000KT 1/2SM R32/1800V2800FT FG OVC002 00/M01 A3062 RMK AO2
                 =
2018-02-22 21:24 METAR KITH 230224Z 00000KT 1/4SM R32/1400V2000FT FG OVC002 00/M01 A3062 RMK AO2
                 =
2018-02-22 21:14 METAR KITH 230214Z 00000KT 1/4SM R32/1400V2600FT FG OVC002 00/M01 A3062 RMK AO2
                 =
2018-02-22 20:56 METAR KITH 230156Z 00000KT 1/4SM R32/1600V2200FT FG OVC002 00/M01 A3063 RMK AO2
                 SLP384 P0001 T00001006 =
2018-02-22 20:03 METAR KITH 230103Z 00000KT 1/4SM R32/1600V2000FT FG OVC002 00/M01 A3063 RMK AO2
                 P0001 =
2018-02-22 19:56 METAR KITH 230056Z 28004KT 1/4SM R32/1800V2400FT FG OVC002 00/M01 A3063 RMK AO2
                 SLP385 T00001006 =
2018-02-22 19:23 METAR KITH 230023Z 34004KT 1/4SM R32/1400V2400FT FZFG OVC002 M01/M01 A3063 RMK
                 AO2 =
2018-02-22 18:56 METAR KITH 222356Z 00000KT 1/4SM R32/1600V1800FT FZFG OVC002 M01/M01 A3060 RMK
                 AO2 SLP377 P0001 60026 T10061011 10039 21006 53001 =
2018-02-22 18:48 METAR KITH 222348Z 00000KT 1/4SM R32/1600V2400FT FZFG OVC002 M01/M01 A3060 RMK
                 AO2 P0001 =
2018-02-22 17:56 METAR KITH 222256Z 00000KT M1/4SM R32/0800V1200FT FG OVC002 00/M01 A3058 RMK AO2
                 SLP370 P0001 T00001006 =
2018-02-22 17:35 METAR KITH 222235Z 26003KT 1/4SM R32/0800V1000FT FG OVC002 01/M01 A3058 RMK AO2
                 P0001 =
2018-02-22 17:28 METAR KITH 222228Z 00000KT 1 1/4SM R32/0800V1000FT BR BKN009 01/M01 A3058 RMK
                 AO2 P0001 =
2018-02-22 17:14 METAR KITH 222214Z 22003KT 1 1/4SM R32/1200VP6000FT BR BKN009 01/M01 A3058 RMK
                 AO2 =
2018-02-22 16:56 METAR KITH 222156Z 00000KT 2SM BR BKN009 01/M01 A3059 RMK AO2 SLP371 P0006
                 T00111006 =
2018-02-22 15:56 METAR KITH 222056Z VRB03KT 3SM BR BKN006 OVC010 03/02 A3060 RMK AO2
                 RAB35E42SNE35 SLP374 P0006 60018 T00330017 58001 =
2018-02-22 14:56 METAR KITH 221956Z 33004KT 1SM R32/5500VP6000FT -SN BR OVC003 01/00 A3063 RMK
                 AO2 SLP385 P0004 T00110000 =
2018-02-22 13:56 METAR KITH 221856Z 35004KT 3/4SM R32/4000V5500FT -SN BR BKN007 OVC012 01/00
                 A3060 RMK AO2 SLP375 P0008 T00110000 =

Support USWX by starting your Amazon purchase here.